createdAt,value
2017-11-11T00:00:44.492Z,23.43
2017-11-11T00:03:14.379Z,24.13
2017-11-11T00:05:44.211Z,24.27
2017-11-11T00:08:14.068Z,25.60
2017-11-11T00:10:43.915Z,26.80
2017-11-11T00:13:13.808Z,25.37
2017-11-11T00:15:43.639Z,32.13
2017-11-11T00:18:13.503Z,27.50
2017-11-11T00:20:43.349Z,27.93
2017-11-11T00:23:13.188Z,23.40
2017-11-11T00:25:43.027Z,24.73
2017-11-11T00:28:12.863Z,26.47
2017-11-11T00:30:42.697Z,18.10
2017-11-11T00:33:12.574Z,15.10
2017-11-11T00:35:42.441Z,27.10
2017-11-11T00:38:12.296Z,27.30
2017-11-11T00:40:42.159Z,30.30
2017-11-11T00:43:12.016Z,29.87
2017-11-11T00:45:41.884Z,29.90
2017-11-11T00:48:11.731Z,31.90
2017-11-11T00:50:41.548Z,29.47
2017-11-11T00:53:11.386Z,26.57
2017-11-11T00:55:41.192Z,32.10
2017-11-11T00:58:11.025Z,25.50
2017-11-11T01:00:40.836Z,28.23
2017-11-11T01:03:10.696Z,30.93
2017-11-11T01:05:40.514Z,28.83
2017-11-11T01:08:10.367Z,33.20
2017-11-11T01:10:40.216Z,22.93
2017-11-11T01:13:10.299Z,39.53
2017-11-11T01:15:40.128Z,31.43
2017-11-11T01:18:10.011Z,42.53
2017-11-11T01:20:39.851Z,39.07
2017-11-11T01:23:09.683Z,30.53
2017-11-11T01:25:39.534Z,34.00
2017-11-11T01:28:09.383Z,29.17
2017-11-11T01:30:39.267Z,32.20
2017-11-11T01:33:09.116Z,29.37
2017-11-11T01:35:38.979Z,25.40
2017-11-11T01:38:08.825Z,26.23
2017-11-11T01:40:38.670Z,22.33
2017-11-11T01:43:08.545Z,24.27
2017-11-11T01:45:38.422Z,26.53
2017-11-11T01:48:08.249Z,18.33
2017-11-11T01:50:38.101Z,18.33
2017-11-11T01:53:07.920Z,28.97
2017-11-11T01:55:37.755Z,26.70
2017-11-11T01:58:07.623Z,26.23
2017-11-11T02:00:37.480Z,24.20
2017-11-11T02:03:07.356Z,24.67
2017-11-11T02:05:37.182Z,26.07
2017-11-11T02:08:07.027Z,28.40
2017-11-11T02:10:36.853Z,29.33
2017-11-11T02:13:06.742Z,27.57
2017-11-11T02:15:36.564Z,31.40
2017-11-11T02:18:06.408Z,22.43
2017-11-11T02:20:36.254Z,27.77
2017-11-11T02:23:06.138Z,21.73
2017-11-11T02:25:36.014Z,24.30
2017-11-11T02:28:05.999Z,24.43
2017-11-11T02:30:35.803Z,23.37
2017-11-11T02:33:05.667Z,27.30
2017-11-11T02:35:35.526Z,21.97
2017-11-11T02:38:05.429Z,23.63
2017-11-11T02:40:35.280Z,22.50
2017-11-11T02:43:05.140Z,23.60
2017-11-11T02:45:34.996Z,27.00
2017-11-11T02:48:04.833Z,30.73
2017-11-11T02:50:34.703Z,26.23
2017-11-11T02:53:04.556Z,29.17
2017-11-11T02:55:34.384Z,28.23
2017-11-11T02:58:04.251Z,34.20
2017-11-11T03:00:34.109Z,23.83
2017-11-11T03:03:03.948Z,22.77
2017-11-11T03:05:33.814Z,23.53
2017-11-11T03:08:03.641Z,22.53
2017-11-11T03:10:33.486Z,23.67
2017-11-11T03:13:03.335Z,19.93
2017-11-11T03:15:33.155Z,22.73
2017-11-11T03:18:03.024Z,18.30
2017-11-11T03:20:32.839Z,23.10
2017-11-11T03:23:02.687Z,19.03
2017-11-11T03:25:32.519Z,19.80
2017-11-11T03:28:02.358Z,17.90
2017-11-11T03:30:32.168Z,22.70
2017-11-11T03:33:02.052Z,23.63
2017-11-11T03:35:31.880Z,23.80
2017-11-11T03:38:01.771Z,22.80
2017-11-11T03:40:31.588Z,22.37
2017-11-11T03:43:01.444Z,20.10
2017-11-11T03:45:31.276Z,19.67
2017-11-11T03:48:01.118Z,25.57
2017-11-11T03:50:30.970Z,20.93
2017-11-11T03:53:00.800Z,20.90
2017-11-11T03:55:30.678Z,21.43
2017-11-11T03:58:00.494Z,21.53
2017-11-11T04:00:30.335Z,23.60
2017-11-11T04:03:00.147Z,29.80
2017-11-11T04:05:29.986Z,31.47
2017-11-11T04:07:59.808Z,31.70
2017-11-11T04:10:29.654Z,31.03
2017-11-11T04:12:59.510Z,21.17
2017-11-11T04:15:29.378Z,24.60
2017-11-11T04:17:59.238Z,24.43
2017-11-11T04:20:29.107Z,24.57
2017-11-11T04:22:58.967Z,22.37
2017-11-11T04:25:28.859Z,21.50
2017-11-11T04:27:58.698Z,25.30
2017-11-11T04:30:28.522Z,20.43
2017-11-11T04:32:58.391Z,34.60
2017-11-11T04:35:28.207Z,28.10
2017-11-11T04:37:58.062Z,25.37
2017-11-11T04:40:27.882Z,20.93
2017-11-11T04:42:57.726Z,19.30
2017-11-11T04:45:27.555Z,33.17
2017-11-11T04:47:57.406Z,36.17
2017-11-11T04:50:27.230Z,27.30
2017-11-11T04:52:57.086Z,31.93
2017-11-11T04:55:26.907Z,48.17
2017-11-11T04:57:56.790Z,39.20
2017-11-11T05:00:26.603Z,43.30
2017-11-11T05:02:56.499Z,30.97
2017-11-11T05:05:26.331Z,25.07
2017-11-11T05:07:56.192Z,25.40
2017-11-11T05:10:26.060Z,26.10
2017-11-11T05:12:55.915Z,25.17
2017-11-11T05:15:25.750Z,21.60
2017-11-11T05:17:55.591Z,24.20
2017-11-11T05:20:25.432Z,21.43
2017-11-11T05:22:55.250Z,21.60
2017-11-11T05:25:25.090Z,17.80
2017-11-11T05:27:54.931Z,19.03
2017-11-11T05:30:24.807Z,21.13
2017-11-11T05:32:54.618Z,17.53
2017-11-11T05:35:24.472Z,17.57
2017-11-11T05:37:54.325Z,15.70
2017-11-11T05:40:24.180Z,22.10
2017-11-11T05:42:54.028Z,26.67
2017-11-11T05:45:23.860Z,15.10
2017-11-11T05:47:53.720Z,13.70
2017-11-11T05:50:23.557Z,34.23
2017-11-11T05:52:53.384Z,15.67
2017-11-11T05:55:23.219Z,23.70
2017-11-11T05:57:53.071Z,23.70
2017-11-11T06:00:22.908Z,29.73
2017-11-11T06:02:52.770Z,28.20
2017-11-11T06:05:22.589Z,19.03
2017-11-11T06:07:52.430Z,24.90
2017-11-11T06:10:22.303Z,24.13
2017-11-11T06:12:52.138Z,15.13
2017-11-11T06:15:22.004Z,22.47
2017-11-11T06:17:51.801Z,19.93
2017-11-11T06:20:21.655Z,15.37
2017-11-11T06:22:51.479Z,16.60
2017-11-11T06:25:21.334Z,18.60
2017-11-11T06:27:51.151Z,24.47
2017-11-11T06:30:20.999Z,22.40
2017-11-11T06:32:50.812Z,24.17
2017-11-11T06:35:20.658Z,23.23
2017-11-11T06:37:50.489Z,27.73
2017-11-11T06:40:20.351Z,21.30
2017-11-11T06:42:50.190Z,30.63
2017-11-11T06:45:20.043Z,27.30
2017-11-11T06:47:49.927Z,27.13
2017-11-11T06:50:19.758Z,26.00
2017-11-11T06:52:49.615Z,23.67
2017-11-11T06:55:19.444Z,21.43
2017-11-11T06:57:49.296Z,19.50
2017-11-11T07:00:19.123Z,18.87
2017-11-11T07:02:49.014Z,21.40
2017-11-11T07:05:18.842Z,17.00
2017-11-11T07:07:48.697Z,19.50
2017-11-11T07:10:18.512Z,19.07
2017-11-11T07:12:48.366Z,18.20
2017-11-11T07:15:18.188Z,19.33
2017-11-11T07:17:48.044Z,20.23
2017-11-11T07:20:18.659Z,20.40
2017-11-11T07:22:48.538Z,21.33
2017-11-11T07:25:18.369Z,20.27
2017-11-11T07:27:48.213Z,18.40
2017-11-11T07:30:18.064Z,29.30
2017-11-11T07:32:47.907Z,30.13
2017-11-11T07:35:17.740Z,31.33
2017-11-11T07:37:47.572Z,16.27
2017-11-11T07:40:17.431Z,19.30
2017-11-11T07:42:47.266Z,17.53
2017-11-11T07:45:17.103Z,22.43
2017-11-11T07:47:46.947Z,24.60
2017-11-11T07:50:16.800Z,21.53
2017-11-11T07:52:46.629Z,24.77
2017-11-11T07:55:16.465Z,26.97
2017-11-11T07:57:46.314Z,29.00
2017-11-11T08:00:16.211Z,18.90
2017-11-11T08:02:46.074Z,22.30
2017-11-11T08:05:15.908Z,17.53
2017-11-11T08:07:45.778Z,26.63
2017-11-11T08:10:15.639Z,23.40
2017-11-11T08:12:45.483Z,28.60
2017-11-11T08:15:15.309Z,24.87
2017-11-11T08:17:45.164Z,18.90
2017-11-11T08:20:14.982Z,29.70
2017-11-11T08:22:44.845Z,35.33
2017-11-11T08:25:14.665Z,22.87
2017-11-11T08:27:44.529Z,25.80
2017-11-11T08:30:14.392Z,25.10
2017-11-11T08:32:44.215Z,24.63
2017-11-11T08:35:14.056Z,27.33
2017-11-11T08:37:43.916Z,27.40
2017-11-11T08:40:13.795Z,22.50
2017-11-11T08:42:43.633Z,19.13
2017-11-11T08:45:13.507Z,22.60
2017-11-11T08:47:43.325Z,28.33
2017-11-11T08:50:13.181Z,33.67
2017-11-11T08:52:42.997Z,29.50
2017-11-11T08:55:12.849Z,34.20
2017-11-11T08:57:42.699Z,30.60
2017-11-11T09:00:12.552Z,19.60
2017-11-11T09:02:42.417Z,24.83
2017-11-11T09:05:12.243Z,16.43
2017-11-11T09:07:42.096Z,18.70
2017-11-11T09:10:11.959Z,23.77
2017-11-11T09:12:41.776Z,20.97
2017-11-11T09:15:11.607Z,25.57
2017-11-11T09:17:41.439Z,23.13
2017-11-11T09:20:11.337Z,22.00
2017-11-11T09:22:41.186Z,22.17
2017-11-11T09:25:11.021Z,21.10
2017-11-11T09:27:40.914Z,31.10
2017-11-11T09:30:10.737Z,26.13
2017-11-11T09:32:40.586Z,18.43
2017-11-11T09:35:10.436Z,24.87
2017-11-11T09:37:40.276Z,22.70
2017-11-11T09:40:10.140Z,21.80
2017-11-11T09:42:40.055Z,18.63
2017-11-11T09:45:09.911Z,20.20
2017-11-11T09:47:39.742Z,18.87
2017-11-11T09:50:09.597Z,16.10
2017-11-11T09:52:39.419Z,16.80
2017-11-11T09:55:09.317Z,21.70
2017-11-11T09:57:39.168Z,17.00
2017-11-11T10:00:09.347Z,22.30
2017-11-11T10:02:39.190Z,17.77
2017-11-11T10:05:09.041Z,18.10
2017-11-11T10:07:38.935Z,16.87
2017-11-11T10:10:08.773Z,14.10
2017-11-11T10:12:38.617Z,18.70
2017-11-11T10:15:08.495Z,15.47
2017-11-11T10:17:38.787Z,15.13
2017-11-11T10:20:08.683Z,14.47
2017-11-11T10:22:38.560Z,14.77
2017-11-11T10:25:08.425Z,31.23
2017-11-11T10:30:14.437Z,25.60
2017-11-11T10:32:44.536Z,22.70
2017-11-11T10:35:14.470Z,24.80
2017-11-11T10:37:44.321Z,19.77
2017-11-11T10:40:14.198Z,20.63
2017-11-11T10:42:44.031Z,26.37
2017-11-11T10:45:13.878Z,20.73
2017-11-11T10:47:43.707Z,21.77
2017-11-11T10:50:13.595Z,19.17
2017-11-11T10:52:43.434Z,21.07
2017-11-11T10:55:13.280Z,20.23
2017-11-11T10:57:43.125Z,24.60
2017-11-11T11:00:12.976Z,26.20
2017-11-11T11:02:42.819Z,22.30
2017-11-11T11:05:12.699Z,20.50
2017-11-11T11:07:42.523Z,17.20
2017-11-11T11:10:12.720Z,20.37
2017-11-11T11:12:42.581Z,20.70
2017-11-11T11:15:12.400Z,23.37
2017-11-11T11:17:42.246Z,25.20
2017-11-11T11:20:12.092Z,26.73
2017-11-11T11:22:42.076Z,34.53
2017-11-11T11:25:11.896Z,35.03
2017-11-11T11:27:42.278Z,28.40
2017-11-11T11:30:12.094Z,40.00
2017-11-11T11:32:41.971Z,34.43
2017-11-11T11:35:12.935Z,35.93
2017-11-11T11:37:42.776Z,32.27
2017-11-11T11:40:12.624Z,24.70
2017-11-11T11:42:42.477Z,31.37
2017-11-11T11:45:12.300Z,33.83
2017-11-11T11:47:42.151Z,34.23
2017-11-11T11:50:12.020Z,33.23
2017-11-11T11:52:41.852Z,34.40
2017-11-11T11:55:11.699Z,37.20
2017-11-11T11:57:41.530Z,37.43
2017-11-11T12:00:11.436Z,32.87
2017-11-11T12:02:41.374Z,27.57
2017-11-11T12:05:11.216Z,27.13
2017-11-11T12:07:41.054Z,26.90
2017-11-11T12:10:11.018Z,25.90
2017-11-11T12:12:40.852Z,29.47
2017-11-11T12:15:10.731Z,29.63
2017-11-11T12:17:40.590Z,30.50
2017-11-11T12:20:10.425Z,31.50
2017-11-11T12:22:40.288Z,30.37
2017-11-11T12:25:10.110Z,34.50
2017-11-11T12:27:39.988Z,34.90
2017-11-11T12:30:09.821Z,36.77
2017-11-11T12:32:40.503Z,35.00
2017-11-11T12:35:10.337Z,36.47
2017-11-11T12:37:40.189Z,33.90
2017-11-11T12:40:10.025Z,34.60
2017-11-11T12:42:40.800Z,35.50
2017-11-11T12:45:10.631Z,34.87
2017-11-11T12:47:41.397Z,33.07
2017-11-11T12:50:11.288Z,32.80
2017-11-11T12:52:41.111Z,30.80
2017-11-11T12:55:10.956Z,31.93
2017-11-11T12:57:40.827Z,26.40
2017-11-11T13:00:10.695Z,28.80
2017-11-11T13:02:40.552Z,28.10
2017-11-11T13:05:10.426Z,26.70
2017-11-11T13:07:40.259Z,22.77
2017-11-11T13:10:10.143Z,27.67
2017-11-11T13:12:39.968Z,25.63
2017-11-11T13:15:09.825Z,41.30
2017-11-11T13:17:39.675Z,38.03
2017-11-11T13:20:09.531Z,38.80
2017-11-11T13:22:39.454Z,38.10
2017-11-11T13:25:09.322Z,47.33
2017-11-11T13:27:39.176Z,51.00
2017-11-11T13:30:09.063Z,50.70
2017-11-11T13:32:38.939Z,46.97
2017-11-11T13:35:08.760Z,43.80
2017-11-11T13:37:38.617Z,26.60
2017-11-11T13:40:08.461Z,31.93
2017-11-11T13:42:38.299Z,48.17
2017-11-11T13:45:08.128Z,50.83
2017-11-11T13:47:37.986Z,57.00
2017-11-11T13:50:07.803Z,59.00
2017-11-11T13:52:37.669Z,56.20
2017-11-11T13:55:07.595Z,41.07
2017-11-11T13:57:37.429Z,40.87
2017-11-11T14:00:07.290Z,45.80
2017-11-11T14:02:37.306Z,45.03
2017-11-11T14:05:07.215Z,42.60
2017-11-11T14:07:37.096Z,22.00
2017-11-11T14:10:06.955Z,37.00
2017-11-11T14:12:36.911Z,41.47
2017-11-11T14:15:06.747Z,40.40
2017-11-11T14:17:36.733Z,31.47
2017-11-11T14:20:06.595Z,34.57
2017-11-11T14:22:36.444Z,36.90
2017-11-11T14:25:06.298Z,42.30
2017-11-11T14:27:36.229Z,43.10
2017-11-11T14:30:06.162Z,41.30
2017-11-11T14:32:35.988Z,42.37
2017-11-11T14:35:05.986Z,42.40
2017-11-11T14:37:35.849Z,35.80
2017-11-11T14:40:05.699Z,46.00
2017-11-11T14:42:35.764Z,42.73
2017-11-11T14:45:05.642Z,41.93
2017-11-11T14:47:35.668Z,40.50
2017-11-11T14:50:05.476Z,38.30
2017-11-11T14:52:35.339Z,44.10
2017-11-11T14:55:05.171Z,42.37
2017-11-11T14:57:35.040Z,46.20
2017-11-11T15:00:04.866Z,38.73
2017-11-11T15:02:34.735Z,42.00
2017-11-11T15:05:04.585Z,41.07
2017-11-11T15:07:34.400Z,37.77
2017-11-11T15:10:04.256Z,40.30
2017-11-11T15:12:34.068Z,35.83
2017-11-11T15:15:04.038Z,39.07
2017-11-11T15:17:33.865Z,40.17
2017-11-11T15:20:03.739Z,31.83
2017-11-11T15:22:33.592Z,39.20
2017-11-11T15:25:03.453Z,26.73
2017-11-11T15:27:33.278Z,36.20
2017-11-11T15:30:03.107Z,37.43
2017-11-11T15:32:32.939Z,34.10
2017-11-11T15:35:02.788Z,32.13
2017-11-11T15:37:32.677Z,38.17
2017-11-11T15:40:02.593Z,37.93
2017-11-11T15:42:32.456Z,37.60
2017-11-11T15:45:02.327Z,33.47
2017-11-11T15:47:32.170Z,37.07
2017-11-11T15:50:01.983Z,34.07
2017-11-11T15:52:31.821Z,29.07
2017-11-11T15:55:01.639Z,27.80
2017-11-11T15:57:31.535Z,32.13
2017-11-11T16:00:01.400Z,33.93
2017-11-11T16:02:31.383Z,30.73
2017-11-11T16:05:01.578Z,28.73
2017-11-11T16:07:31.382Z,38.03
2017-11-11T16:10:02.097Z,14.97
2017-11-11T16:12:32.003Z,26.83
2017-11-11T16:15:01.886Z,19.97
2017-11-11T16:17:31.679Z,20.93
2017-11-11T16:20:01.530Z,24.67
2017-11-11T16:22:31.395Z,15.10
2017-11-11T16:25:01.244Z,19.07
2017-11-11T16:27:31.111Z,21.57
2017-11-11T16:30:00.962Z,19.20
2017-11-11T16:32:30.821Z,17.20
2017-11-11T16:35:00.774Z,21.90
2017-11-11T16:37:30.591Z,26.73
2017-11-11T16:40:00.422Z,30.10
2017-11-11T16:42:30.290Z,25.77
2017-11-11T16:45:00.108Z,24.77
2017-11-11T16:47:29.947Z,31.30
2017-11-11T16:49:59.787Z,27.80
2017-11-11T16:52:29.638Z,31.47
2017-11-11T16:54:59.481Z,29.47
2017-11-11T16:57:29.324Z,33.57
2017-11-11T16:59:59.175Z,32.57
2017-11-11T17:02:29.017Z,45.33
2017-11-11T17:04:59.254Z,43.40
2017-11-11T17:07:29.127Z,39.47
2017-11-11T17:09:58.938Z,20.17
2017-11-11T17:12:28.794Z,21.50
2017-11-11T17:14:58.711Z,21.63
2017-11-11T17:17:28.536Z,21.17
2017-11-11T17:19:58.395Z,18.40
2017-11-11T17:22:28.272Z,19.73
2017-11-11T17:24:58.162Z,20.80
2017-11-11T17:27:28.004Z,21.20
2017-11-11T17:29:57.868Z,22.03
2017-11-11T17:32:27.721Z,26.27
2017-11-11T17:34:57.585Z,19.57
2017-11-11T17:37:27.416Z,27.90
2017-11-11T17:39:57.267Z,25.73
2017-11-11T17:42:27.223Z,25.40
2017-11-11T17:44:57.141Z,25.13
2017-11-11T17:47:27.056Z,29.33
2017-11-11T17:49:56.901Z,28.27
2017-11-11T17:52:26.743Z,24.47
2017-11-11T17:54:56.628Z,30.50
2017-11-11T17:57:26.468Z,26.90
2017-11-11T17:59:56.286Z,24.97
2017-11-11T18:02:27.158Z,27.30
2017-11-11T18:04:57.077Z,23.50
2017-11-11T18:07:26.949Z,26.60
2017-11-11T18:09:56.769Z,28.10
2017-11-11T18:12:26.624Z,25.03
2017-11-11T18:14:56.455Z,28.67
2017-11-11T18:17:26.323Z,30.70
2017-11-11T18:19:56.137Z,29.27
2017-11-11T18:22:25.981Z,30.93
2017-11-11T18:24:55.823Z,27.13
2017-11-11T18:27:26.123Z,30.10
2017-11-11T18:29:55.995Z,30.00
2017-11-11T18:32:25.798Z,25.70
2017-11-11T18:34:55.655Z,21.63
2017-11-11T18:37:25.490Z,26.47
2017-11-11T18:39:55.343Z,25.60
2017-11-11T18:42:25.149Z,24.23
2017-11-11T18:44:54.979Z,26.40
2017-11-11T18:47:24.797Z,22.67
2017-11-11T18:49:54.672Z,27.20
2017-11-11T18:52:24.499Z,24.27
2017-11-11T18:54:54.378Z,18.90
2017-11-11T18:57:24.258Z,17.70
2017-11-11T18:59:54.087Z,14.63
2017-11-11T19:02:23.934Z,23.47
2017-11-11T19:04:53.762Z,19.30
2017-11-11T19:07:23.595Z,28.20
2017-11-11T19:09:53.862Z,22.70
2017-11-11T19:12:23.692Z,22.87
2017-11-11T19:14:53.512Z,21.87
2017-11-11T19:17:23.391Z,23.00
2017-11-11T19:19:53.219Z,26.20
2017-11-11T19:22:23.079Z,27.30
2017-11-11T19:24:52.911Z,26.27
2017-11-11T19:27:22.758Z,28.50
2017-11-11T19:29:52.618Z,25.43
2017-11-11T19:32:22.442Z,28.87
2017-11-11T19:34:52.291Z,28.37
2017-11-11T19:37:22.123Z,25.03
2017-11-11T19:39:51.974Z,25.67
2017-11-11T19:42:21.803Z,28.60
2017-11-11T19:44:51.638Z,26.50
2017-11-11T19:47:21.486Z,27.87
2017-11-11T19:49:51.349Z,25.40
2017-11-11T19:52:21.169Z,32.53
2017-11-11T19:54:51.010Z,30.03
2017-11-11T19:57:20.844Z,31.50
2017-11-11T19:59:50.683Z,30.17
2017-11-11T20:02:20.546Z,29.10
2017-11-11T20:04:50.376Z,16.47
2017-11-11T20:07:20.222Z,20.03
2017-11-11T20:09:50.043Z,24.13
2017-11-11T20:12:19.903Z,27.47
2017-11-11T20:14:49.725Z,22.13
2017-11-11T20:17:19.569Z,28.53
2017-11-11T20:19:49.436Z,24.77
2017-11-11T20:22:19.311Z,29.70
2017-11-11T20:24:49.160Z,26.90
2017-11-11T20:27:19.051Z,29.03
2017-11-11T20:29:48.908Z,18.90
2017-11-11T20:32:18.835Z,20.30
2017-11-11T20:34:48.709Z,19.67
2017-11-11T20:37:18.868Z,21.00
2017-11-11T20:39:48.795Z,36.10
2017-11-11T20:42:18.634Z,42.80
2017-11-11T20:44:48.608Z,43.47
2017-11-11T20:47:18.435Z,37.50
2017-11-11T20:49:48.316Z,34.63
2017-11-11T20:52:18.241Z,36.30
2017-11-11T20:54:48.185Z,24.73
2017-11-11T20:57:18.204Z,23.33
2017-11-11T20:59:48.046Z,22.50
2017-11-11T21:02:17.863Z,26.23
2017-11-11T21:04:48.059Z,23.20
2017-11-11T21:07:17.860Z,25.43
2017-11-11T21:09:47.713Z,23.93
2017-11-11T21:12:17.530Z,23.17
2017-11-11T21:14:47.393Z,24.40
2017-11-11T21:17:17.282Z,21.23
2017-11-11T21:19:47.124Z,22.73
2017-11-11T21:22:16.973Z,25.23
2017-11-11T21:24:46.826Z,24.60
2017-11-11T21:27:16.667Z,19.30
2017-11-11T21:29:46.531Z,28.00
2017-11-11T21:32:16.418Z,28.00
2017-11-11T21:34:46.244Z,29.00
2017-11-11T21:37:16.096Z,32.90
2017-11-11T21:39:45.934Z,30.50
2017-11-11T21:42:15.790Z,32.40
2017-11-11T21:44:45.639Z,28.47
2017-11-11T21:47:15.467Z,30.20
2017-11-11T21:49:46.144Z,28.60
2017-11-11T21:52:17.147Z,33.23
2017-11-11T21:54:47.006Z,25.70
2017-11-11T21:57:16.825Z,25.50
2017-11-11T21:59:46.681Z,26.33
2017-11-11T22:02:16.507Z,27.00
2017-11-11T22:04:46.362Z,30.10
2017-11-11T22:07:16.191Z,30.50
2017-11-11T22:09:46.094Z,25.43
2017-11-11T22:12:15.979Z,22.90
2017-11-11T22:14:45.931Z,22.83
2017-11-11T22:17:15.776Z,25.30
2017-11-11T22:19:45.631Z,20.60
2017-11-11T22:22:15.483Z,26.03
2017-11-11T22:24:45.311Z,28.30
2017-11-11T22:27:15.157Z,30.70
2017-11-11T22:29:44.970Z,36.00
2017-11-11T22:32:14.806Z,32.73
2017-11-11T22:34:44.651Z,32.80
2017-11-11T22:37:14.500Z,38.40
2017-11-11T22:39:44.325Z,36.30
2017-11-11T22:42:14.297Z,41.60
2017-11-11T22:44:44.106Z,40.70
2017-11-11T22:47:14.015Z,43.57
2017-11-11T22:49:44.285Z,40.83
2017-11-11T22:52:14.144Z,31.83
2017-11-11T22:54:44.024Z,33.47
2017-11-11T22:57:13.868Z,32.97
2017-11-11T22:59:43.719Z,35.10
2017-11-11T23:02:13.625Z,33.90
2017-11-11T23:04:43.483Z,31.10
2017-11-11T23:07:13.314Z,30.80
2017-11-11T23:09:43.184Z,30.43
2017-11-11T23:12:13.031Z,31.90
2017-11-11T23:14:42.909Z,27.83
2017-11-11T23:17:12.782Z,28.27
2017-11-11T23:19:42.655Z,31.20
2017-11-11T23:22:12.479Z,38.07
2017-11-11T23:24:42.335Z,29.50
2017-11-11T23:27:12.172Z,33.20
2017-11-11T23:29:42.040Z,35.73
2017-11-11T23:32:11.954Z,35.83
2017-11-11T23:34:41.778Z,33.67
2017-11-11T23:37:11.634Z,34.60
2017-11-11T23:39:41.467Z,33.90
2017-11-11T23:42:11.307Z,32.70
2017-11-11T23:44:41.134Z,33.00
2017-11-11T23:47:11.023Z,31.50
2017-11-11T23:49:40.900Z,33.27
2017-11-11T23:52:10.740Z,31.53
2017-11-11T23:54:40.608Z,30.30
2017-11-11T23:57:10.655Z,32.00
2017-11-11T23:59:40.503Z,31.83
